Time;durP1;ratioP1;P1;durP2;ratioP2;P2;SDS_P1;SDS_P2;PMS_P1;PMS_P2;Temp;Humidity;BMP_temperature;BMP_pressure;BME280_temperature;BME280_humidity;BME280_pressure;Samples;Min_cycle;Max_cycle;Signal;HPM_P1;HPM_P2
2021/07/21 00:00:47;;;;;;;6.32;3.03;;;23.60;50.40;;;;;;4884954;29;20021;-65
2021/07/21 00:03:12;;;;;;;6.65;3.53;;;23.60;50.40;;;;;;4884743;29;20059;-65
2021/07/21 00:05:39;;;;;;;6.68;3.08;;;23.60;50.40;;;;;;4884887;29;20029;-64
2021/07/21 00:08:05;;;;;;;6.00;3.05;;;23.60;50.50;;;;;;4881295;29;20037;-65
2021/07/21 00:10:32;;;;;;;7.78;3.80;;;23.60;50.50;;;;;;4881810;29;20037;-65
2021/07/21 00:15:56;;;;;;;6.63;3.45;;;23.60;50.50;;;;;;4881748;29;20036;-65
2021/07/21 00:21:25;;;;;;;5.80;3.10;;;23.60;50.60;;;;;;4860898;29;20037;-65
2021/07/21 00:23:51;;;;;;;6.63;3.53;;;23.50;50.60;;;;;;4877653;29;20500;-65
2021/07/21 00:26:16;;;;;;;6.05;3.10;;;23.50;50.70;;;;;;4881580;29;20037;-64
2021/07/21 00:28:42;;;;;;;6.25;3.53;;;23.50;50.70;;;;;;4881493;29;20389;-63
2021/07/21 00:31:10;;;;;;;6.03;3.17;;;23.50;50.70;;;;;;4881725;29;20504;-64
2021/07/21 00:33:37;;;;;;;6.32;3.17;;;23.50;50.70;;;;;;4881489;29;20057;-63
2021/07/21 00:36:03;;;;;;;5.35;2.80;;;23.50;50.80;;;;;;4881752;29;20092;-63
2021/07/21 00:38:30;;;;;;;7.13;3.35;;;23.50;50.80;;;;;;4881359;29;20021;-64
2021/07/21 00:40:55;;;;;;;6.10;3.13;;;23.50;50.90;;;;;;4881447;29;20168;-64
2021/07/21 00:43:21;;;;;;;7.45;3.38;;;23.50;50.90;;;;;;4879972;29;20069;-64
2021/07/21 00:45:46;;;;;;;6.85;3.13;;;23.40;51.00;;;;;;4881181;29;20389;-65
2021/07/21 00:48:12;;;;;;;6.53;3.15;;;23.40;51.00;;;;;;4881251;29;20036;-65
2021/07/21 00:50:38;;;;;;;6.07;3.35;;;23.30;51.00;;;;;;4881311;29;20537;-65
2021/07/21 00:53:04;;;;;;;5.90;3.03;;;23.30;51.10;;;;;;4881487;29;20040;-65
2021/07/21 00:55:29;;;;;;;7.85;3.38;;;23.30;51.10;;;;;;4882481;29;20028;-64
2021/07/21 00:57:56;;;;;;;5.35;2.92;;;23.30;51.20;;;;;;4885533;29;20029;-64
2021/07/21 01:00:22;;;;;;;6.53;3.08;;;23.30;51.20;;;;;;4881093;29;20111;-64
2021/07/21 01:02:51;;;;;;;6.55;3.17;;;23.20;51.20;;;;;;4882267;29;20493;-64
2021/07/21 01:05:41;;;;;;;5.80;3.28;;;23.20;51.40;;;;;;4885611;29;20393;-64
2021/07/21 01:08:09;;;;;;;5.63;3.03;;;23.20;51.40;;;;;;4881121;29;20021;-64
2021/07/21 01:10:35;;;;;;;6.20;3.30;;;23.20;51.40;;;;;;4880753;29;20116;-64
2021/07/21 01:13:34;;;;;;;6.38;3.63;;;23.20;51.50;;;;;;4880778;29;20037;-64
2021/07/21 01:16:12;;;;;;;6.70;3.45;;;23.20;51.40;;;;;;4880806;29;20028;-64
2021/07/21 01:18:59;;;;;;;5.65;3.05;;;23.20;51.40;;;;;;4880510;29;20032;-64
2021/07/21 01:21:41;;;;;;;6.40;3.15;;;23.20;51.50;;;;;;4880730;29;20037;-64
2021/07/21 01:24:46;;;;;;;5.75;3.00;;;23.20;51.40;;;;;;4880713;29;20500;-64
2021/07/21 01:27:48;;;;;;;5.10;2.50;;;23.20;51.60;;;;;;4880544;29;20039;-64
2021/07/21 01:30:17;;;;;;;5.53;2.92;;;23.10;51.50;;;;;;4880459;29;20096;-64
2021/07/21 01:32:49;;;;;;;5.55;2.88;;;23.10;51.50;;;;;;4880494;29;20493;-64
2021/07/21 01:35:20;;;;;;;5.93;2.92;;;23.10;51.50;;;;;;4880441;29;20029;-64
2021/07/21 01:37:52;;;;;;;5.90;3.20;;;23.10;51.50;;;;;;4880382;29;20173;-64
2021/07/21 01:40:23;;;;;;;7.35;3.47;;;23.10;51.60;;;;;;4880534;29;20065;-64
2021/07/21 01:42:56;;;;;;;6.15;3.22;;;23.10;51.60;;;;;;4880424;29;20397;-64
2021/07/21 01:45:26;;;;;;;5.88;3.17;;;23.10;51.60;;;;;;4879236;29;20036;-64
2021/07/21 01:47:52;;;;;;;6.95;3.60;;;23.10;51.60;;;;;;4880338;29;20486;-64
2021/07/21 01:50:19;;;;;;;6.35;3.13;;;23.10;51.60;;;;;;4880127;29;20037;-64
2021/07/21 01:52:51;;;;;;;6.07;2.92;;;23.00;51.70;;;;;;4880385;29;20085;-64
2021/07/21 01:55:20;;;;;;;6.38;3.03;;;23.00;51.80;;;;;;4880029;29;20466;-64
2021/07/21 01:57:48;;;;;;;5.57;2.83;;;23.00;51.80;;;;;;4880133;29;20544;-64
2021/07/21 02:00:14;;;;;;;5.60;3.10;;;23.00;51.80;;;;;;4880056;29;20037;-64
2021/07/21 02:02:43;;;;;;;5.68;2.85;;;23.00;51.80;;;;;;4879766;29;20053;-64
2021/07/21 02:05:09;;;;;;;5.65;3.08;;;23.00;51.90;;;;;;4880043;29;20040;-64
2021/07/21 02:07:36;;;;;;;5.68;3.13;;;22.90;52.00;;;;;;4883058;29;20029;-64
2021/07/21 02:10:05;;;;;;;6.03;3.25;;;22.90;52.00;;;;;;4885583;29;20580;-64
2021/07/21 02:12:35;;;;;;;5.93;3.03;;;22.90;52.00;;;;;;4879850;29;20033;-64
2021/07/21 02:15:01;;;;;;;6.40;3.33;;;22.90;52.10;;;;;;4879846;29;20029;-64
2021/07/21 02:17:27;;;;;;;6.10;2.92;;;22.90;52.00;;;;;;4879734;29;20033;-64
2021/07/21 02:19:53;;;;;;;5.82;3.13;;;22.90;52.10;;;;;;4879915;29;20389;-64
2021/07/21 02:22:21;;;;;;;5.22;2.65;;;22.90;52.10;;;;;;4879894;29;20112;-64
2021/07/21 02:24:47;;;;;;;5.93;2.83;;;22.90;52.10;;;;;;4879984;29;20040;-64
2021/07/21 02:27:14;;;;;;;4.88;2.88;;;22.90;52.10;;;;;;4878392;29;20124;-64
2021/07/21 02:29:41;;;;;;;6.65;3.50;;;22.90;52.10;;;;;;4885016;29;20029;-64
2021/07/21 02:32:11;;;;;;;6.82;3.33;;;22.90;52.10;;;;;;4887246;29;20033;-64
2021/07/21 02:34:37;;;;;;;6.10;2.95;;;22.80;52.20;;;;;;4884347;29;20441;-64
2021/07/21 02:37:03;;;;;;;6.65;3.22;;;22.80;52.20;;;;;;4880773;29;20036;-64
2021/07/21 02:39:29;;;;;;;6.07;2.92;;;22.80;52.20;;;;;;4879675;29;20033;-64
2021/07/21 02:41:55;;;;;;;5.90;2.83;;;22.80;52.20;;;;;;4888485;29;20101;-64
2021/07/21 02:44:21;;;;;;;5.88;3.42;;;22.80;52.20;;;;;;4882505;29;20395;-64
2021/07/21 02:46:48;;;;;;;6.03;3.33;;;22.80;52.20;;;;;;4880703;29;20033;-64
2021/07/21 02:49:15;;;;;;;5.65;3.08;;;22.80;52.20;;;;;;4882279;29;20041;-64
2021/07/21 02:51:47;;;;;;;6.70;3.58;;;22.80;52.20;;;;;;4886670;29;20033;-64
2021/07/21 02:54:35;;;;;;;6.38;3.47;;;22.80;52.20;;;;;;4886506;29;20049;-64
2021/07/21 02:57:17;;;;;;;5.40;2.95;;;22.80;52.20;;;;;;4885330;29;20033;-64
2021/07/21 02:59:47;;;;;;;5.68;3.03;;;22.70;52.30;;;;;;4886054;29;20021;-64
2021/07/21 03:02:21;;;;;;;6.15;3.13;;;22.70;52.30;;;;;;4885673;29;20017;-64
2021/07/21 03:04:48;;;;;;;6.03;3.15;;;22.70;52.30;;;;;;4885201;29;20080;-64
2021/07/21 03:07:16;;;;;;;5.00;2.58;;;22.70;52.40;;;;;;4885742;29;20044;-64
2021/07/21 03:09:43;;;;;;;6.13;2.95;;;22.70;52.40;;;;;;4884175;29;20543;-64
2021/07/21 03:12:13;;;;;;;6.30;3.22;;;22.70;52.40;;;;;;4886961;29;20029;-64
2021/07/21 03:14:41;;;;;;;5.68;2.92;;;22.70;52.30;;;;;;4886569;29;20025;-64
2021/07/21 03:17:10;;;;;;;6.15;3.00;;;22.70;52.30;;;;;;4885692;29;20037;-64
2021/07/21 03:19:39;;;;;;;6.20;3.15;;;22.70;52.30;;;;;;4880609;29;20088;-65
2021/07/21 03:22:05;;;;;;;5.57;3.30;;;22.70;52.30;;;;;;4879633;29;20156;-65
2021/07/21 03:24:32;;;;;;;4.63;2.85;;;22.70;52.30;;;;;;4879203;29;20017;-65
2021/07/21 03:26:59;;;;;;;6.60;3.15;;;22.70;52.40;;;;;;4879277;29;20112;-64
2021/07/21 03:29:28;;;;;;;5.97;3.30;;;22.60;52.40;;;;;;4879255;29;20029;-64
2021/07/21 03:31:53;;;;;;;6.32;3.10;;;22.70;52.40;;;;;;4879666;29;20117;-64
2021/07/21 03:34:22;;;;;;;6.40;3.10;;;22.70;52.40;;;;;;4880038;29;20057;-64
2021/07/21 03:36:51;;;;;;;5.93;3.25;;;22.60;52.50;;;;;;4879121;29;20129;-64
2021/07/21 03:39:17;;;;;;;6.15;2.95;;;22.60;52.60;;;;;;4862298;29;20055;-65
2021/07/21 03:41:44;;;;;;;4.88;2.60;;;22.50;52.60;;;;;;4880070;29;20033;-64
2021/07/21 03:44:11;;;;;;;5.30;2.60;;;22.60;52.60;;;;;;4882534;29;20033;-64
2021/07/21 03:46:38;;;;;;;5.32;2.80;;;22.50;52.60;;;;;;4882354;29;20622;-64
2021/07/21 03:49:05;;;;;;;6.45;3.30;;;22.50;52.60;;;;;;4882261;29;20025;-64
2021/07/21 03:51:32;;;;;;;6.10;3.05;;;22.50;52.70;;;;;;4882308;29;20029;-64
2021/07/21 03:53:58;;;;;;;5.70;2.95;;;22.50;52.60;;;;;;4882210;29;20477;-64
2021/07/21 03:56:25;;;;;;;6.47;3.25;;;22.50;52.60;;;;;;4882212;29;20044;-64
2021/07/21 03:58:51;;;;;;;4.80;2.63;;;22.50;52.70;;;;;;4882245;29;20029;-64
2021/07/21 04:01:17;;;;;;;5.68;3.10;;;22.50;52.70;;;;;;4882226;29;20362;-64
2021/07/21 04:03:44;;;;;;;7.68;3.30;;;22.50;52.70;;;;;;4881967;29;20060;-65
2021/07/21 04:06:11;;;;;;;5.45;2.88;;;22.50;52.70;;;;;;4881986;29;20029;-65
2021/07/21 04:08:38;;;;;;;5.45;3.15;;;22.50;52.80;;;;;;4880637;29;20112;-65
2021/07/21 04:11:04;;;;;;;5.22;2.88;;;22.50;52.80;;;;;;4881988;29;20036;-65
2021/07/21 04:13:32;;;;;;;7.05;2.90;;;22.50;52.80;;;;;;4882005;29;20225;-65
2021/07/21 04:15:58;;;;;;;6.68;3.20;;;22.50;52.80;;;;;;4886226;29;20025;-65
2021/07/21 04:18:25;;;;;;;6.00;3.03;;;22.50;52.70;;;;;;4887464;29;20029;-66
2021/07/21 04:20:51;;;;;;;7.13;3.28;;;22.40;52.80;;;;;;4881870;29;20068;-65
2021/07/21 04:23:18;;;;;;;6.15;2.97;;;22.50;52.80;;;;;;4881759;29;20057;-65
2021/07/21 04:25:44;;;;;;;4.20;2.53;;;22.40;52.80;;;;;;4881763;29;20111;-64
2021/07/21 04:28:12;;;;;;;6.65;2.75;;;22.40;52.80;;;;;;4881886;29;20029;-65
2021/07/21 04:30:38;;;;;;;5.93;3.10;;;22.40;52.80;;;;;;4881531;29;20041;-65
2021/07/21 04:33:04;;;;;;;5.68;2.72;;;22.50;52.80;;;;;;4881615;29;20036;-65
2021/07/21 04:35:30;;;;;;;5.40;2.70;;;22.40;52.80;;;;;;4881701;29;20037;-65
2021/07/21 04:37:57;;;;;;;6.10;3.08;;;22.40;52.80;;;;;;4881494;29;20032;-64
2021/07/21 04:40:23;;;;;;;5.30;2.63;;;22.40;52.80;;;;;;4881448;29;20037;-64
2021/07/21 04:42:49;;;;;;;5.55;2.83;;;22.50;52.80;;;;;;4884000;29;20029;-64
2021/07/21 04:45:15;;;;;;;5.82;3.05;;;22.40;52.80;;;;;;4885663;29;20044;-64
2021/07/21 04:47:41;;;;;;;6.55;2.95;;;22.40;52.80;;;;;;4881744;29;20125;-64
2021/07/21 04:50:10;;;;;;;5.50;2.88;;;22.40;52.90;;;;;;4882290;29;20148;-65
2021/07/21 04:52:36;;;;;;;6.13;3.20;;;22.40;52.80;;;;;;4881469;29;20021;-64
2021/07/21 04:55:03;;;;;;;5.68;2.92;;;22.40;52.90;;;;;;4880741;29;20393;-65
2021/07/21 04:57:29;;;;;;;5.65;2.90;;;22.40;52.80;;;;;;4881095;29;20063;-65
2021/07/21 04:59:54;;;;;;;5.75;2.85;;;22.40;52.80;;;;;;4880962;29;20482;-65
2021/07/21 05:02:20;;;;;;;5.68;2.97;;;22.40;52.80;;;;;;4880842;29;20133;-65
2021/07/21 05:04:45;;;;;;;6.80;3.05;;;22.40;52.80;;;;;;4881241;29;20125;-65
2021/07/21 05:07:13;;;;;;;5.85;2.95;;;22.40;52.90;;;;;;4881034;29;20460;-65
2021/07/21 05:09:39;;;;;;;5.05;2.72;;;22.40;52.90;;;;;;4880850;29;20047;-65
2021/07/21 05:12:04;;;;;;;5.45;3.03;;;22.40;52.90;;;;;;4880869;29;20482;-65
2021/07/21 05:14:30;;;;;;;5.60;3.00;;;22.40;52.80;;;;;;4880847;29;20033;-64
2021/07/21 05:16:55;;;;;;;6.38;3.03;;;22.40;52.80;;;;;;4879437;29;20128;-65
2021/07/21 05:19:21;;;;;;;5.15;2.80;;;22.40;52.80;;;;;;4880655;29;20057;-65
2021/07/21 05:21:46;;;;;;;4.95;2.53;;;22.40;52.80;;;;;;4880698;29;20029;-65
2021/07/21 05:24:12;;;;;;;5.82;3.00;;;22.40;52.80;;;;;;4880553;29;20032;-65
2021/07/21 05:26:41;;;;;;;5.78;2.63;;;22.40;52.80;;;;;;4880843;29;20448;-65
2021/07/21 05:29:06;;;;;;;4.88;2.72;;;22.40;52.80;;;;;;4880324;29;20071;-65
2021/07/21 05:31:32;;;;;;;6.05;2.80;;;22.40;52.90;;;;;;4880446;29;20485;-65
2021/07/21 05:33:57;;;;;;;6.25;3.15;;;22.40;52.90;;;;;;4880571;29;20037;-64
2021/07/21 05:36:23;;;;;;;5.25;2.50;;;22.40;52.80;;;;;;4880529;29;20028;-65
2021/07/21 05:38:48;;;;;;;5.38;2.85;;;22.40;52.90;;;;;;4880373;29;20108;-65
2021/07/21 05:41:15;;;;;;;5.65;2.78;;;22.40;52.90;;;;;;4880370;29;20025;-65
2021/07/21 05:43:41;;;;;;;5.97;3.30;;;22.40;52.90;;;;;;4880299;29;20035;-65
2021/07/21 05:46:06;;;;;;;5.78;3.20;;;22.40;53.00;;;;;;4880254;29;20025;-65
2021/07/21 05:48:32;;;;;;;6.10;2.60;;;22.40;53.00;;;;;;4880212;29;20104;-65
2021/07/21 05:50:57;;;;;;;6.22;3.00;;;22.40;52.90;;;;;;4880209;29;20493;-65
2021/07/21 05:53:23;;;;;;;6.15;3.28;;;22.40;53.00;;;;;;4880453;29;20060;-65
2021/07/21 05:55:48;;;;;;;5.40;2.97;;;22.40;52.90;;;;;;4880623;29;20029;-64
2021/07/21 05:58:14;;;;;;;5.63;2.90;;;22.40;53.00;;;;;;4880170;29;20029;-64
2021/07/21 06:00:41;;;;;;;6.07;2.70;;;22.40;53.00;;;;;;4879979;29;20021;-65
2021/07/21 06:03:06;;;;;;;5.20;2.78;;;22.40;53.00;;;;;;4879810;29;20124;-65
2021/07/21 06:05:32;;;;;;;4.90;2.50;;;22.40;53.00;;;;;;4879416;29;20529;-65
2021/07/21 06:07:57;;;;;;;5.07;2.75;;;22.40;53.10;;;;;;4879887;29;20041;-64
2021/07/21 06:10:23;;;;;;;4.55;2.50;;;22.40;53.00;;;;;;4879679;29;20037;-64
2021/07/21 06:12:49;;;;;;;5.60;3.10;;;22.40;53.00;;;;;;4879768;29;20112;-64
2021/07/21 06:15:14;;;;;;;5.03;2.50;;;22.40;53.00;;;;;;4879747;29;20381;-64
2021/07/21 06:17:40;;;;;;;5.45;2.88;;;22.40;52.90;;;;;;4879622;29;20473;-64
2021/07/21 06:20:08;;;;;;;5.13;2.53;;;22.50;52.90;;;;;;4878508;29;20089;-64
2021/07/21 06:22:38;;;;;;;5.70;2.75;;;22.50;52.90;;;;;;4879704;29;20523;-64
2021/07/21 06:25:08;;;;;;;6.78;2.67;;;22.50;52.90;;;;;;4879527;29;20089;-65
2021/07/21 06:27:34;;;;;;;4.38;2.28;;;22.50;52.90;;;;;;4880724;29;20060;-65
2021/07/21 06:30:00;;;;;;;5.22;2.83;;;22.50;52.90;;;;;;4882237;29;20065;-64
2021/07/21 06:32:25;;;;;;;5.63;2.80;;;22.50;52.90;;;;;;4879389;29;20031;-64
2021/07/21 06:34:51;;;;;;;4.57;2.67;;;22.50;52.90;;;;;;4879377;29;20393;-65
2021/07/21 06:37:16;;;;;;;6.97;2.88;;;22.50;52.80;;;;;;4879257;29;20043;-65
2021/07/21 06:39:42;;;;;;;4.97;2.65;;;22.50;52.70;;;;;;4879181;29;20108;-64
2021/07/21 06:42:07;;;;;;;5.60;2.90;;;22.50;52.70;;;;;;4879253;29;20033;-64
2021/07/21 06:44:33;;;;;;;5.88;2.80;;;22.60;52.70;;;;;;4879172;29;20028;-64
2021/07/21 06:46:58;;;;;;;6.47;2.80;;;22.60;52.60;;;;;;4879202;29;20041;-64
2021/07/21 06:49:24;;;;;;;6.43;2.90;;;22.60;52.60;;;;;;4879152;29;20037;-64
2021/07/21 06:51:49;;;;;;;5.90;3.25;;;22.60;52.60;;;;;;4879026;29;20036;-65
2021/07/21 06:54:15;;;;;;;5.72;2.90;;;22.60;52.60;;;;;;4879155;29;20040;-65
2021/07/21 06:56:40;;;;;;;5.45;2.80;;;22.60;52.60;;;;;;4878779;29;20040;-65
2021/07/21 06:59:06;;;;;;;6.07;2.85;;;22.60;52.50;;;;;;4878841;29;20040;-65
2021/07/21 07:01:32;;;;;;;6.13;2.90;;;22.60;52.50;;;;;;4878134;29;20037;-65
2021/07/21 07:03:57;;;;;;;7.43;3.63;;;22.60;52.70;;;;;;4879601;29;20068;-69
2021/07/21 07:06:23;;;;;;;6.28;3.05;;;22.60;52.40;;;;;;4878693;29;20036;-70
2021/07/21 07:08:48;;;;;;;5.40;2.85;;;22.60;52.50;;;;;;4862655;29;20033;-69
2021/07/21 07:11:14;;;;;;;10.88;4.82;;;22.60;52.60;;;;;;4871577;29;20037;-70
2021/07/21 07:13:40;;;;;;;7.72;4.50;;;22.50;52.30;;;;;;4877547;29;20040;-71
2021/07/21 07:16:05;;;;;;;11.43;5.40;;;22.30;52.20;;;;;;4874881;29;20025;-69
2021/07/21 07:18:31;;;;;;;10.07;4.75;;;22.00;53.00;;;;;;4881705;29;20060;-73
2021/07/21 07:20:57;;;;;;;13.90;5.35;;;22.10;51.90;;;;;;4880459;29;20037;-71
2021/07/21 07:23:23;;;;;;;7.68;3.92;;;22.00;52.10;;;;;;4887364;29;20025;-72
2021/07/21 07:25:48;;;;;;;9.45;4.70;;;22.00;51.50;;;;;;4871650;29;20052;-72
2021/07/21 07:28:14;;;;;;;8.65;4.15;;;22.00;51.50;;;;;;4884155;29;20067;-71
2021/07/21 07:30:40;;;;;;;9.48;4.57;;;22.00;51.70;;;;;;4891541;29;20492;-72
2021/07/21 07:33:05;;;;;;;8.45;4.93;;;21.90;51.70;;;;;;4885439;29;20033;-72
2021/07/21 07:35:31;;;;;;;7.85;4.10;;;21.80;52.00;;;;;;4891200;29;20072;-71
2021/07/21 07:37:57;;;;;;;9.98;5.07;;;22.00;51.80;;;;;;4887062;29;20516;-73
2021/07/21 07:40:24;;;;;;;9.25;3.97;;;22.00;51.40;;;;;;4881248;29;20045;-71
2021/07/21 07:42:49;;;;;;;9.98;4.20;;;21.80;51.60;;;;;;4879632;29;20025;-70
2021/07/21 07:45:16;;;;;;;10.10;4.38;;;21.70;52.50;;;;;;4881204;29;20056;-70
2021/07/21 07:47:43;;;;;;;10.30;4.20;;;21.80;52.00;;;;;;4881843;29;20032;-73
2021/07/21 07:50:10;;;;;;;10.25;4.20;;;21.80;51.80;;;;;;4880709;29;20041;-73
2021/07/21 07:52:36;;;;;;;7.80;4.03;;;22.00;51.90;;;;;;4884942;29;20037;-72
2021/07/21 07:55:04;;;;;;;8.57;4.60;;;21.90;51.20;;;;;;4875469;29;20480;-73
2021/07/21 07:57:29;;;;;;;11.65;4.40;;;21.90;51.20;;;;;;4880768;29;20025;-72
2021/07/21 07:59:55;;;;;;;8.65;3.97;;;21.90;51.50;;;;;;4889526;29;20089;-70
2021/07/21 08:02:20;;;;;;;10.02;4.38;;;22.00;51.40;;;;;;4878557;29;20501;-70
2021/07/21 08:04:46;;;;;;;10.48;3.75;;;22.00;51.40;;;;;;4872611;29;20113;-71
2021/07/21 08:07:11;;;;;;;12.98;4.93;;;22.00;51.40;;;;;;4881875;29;20036;-70
2021/07/21 08:09:37;;;;;;;9.27;4.60;;;22.00;51.90;;;;;;4876950;29;20100;-71
2021/07/21 08:12:03;;;;;;;10.65;4.28;;;22.00;52.20;;;;;;4881961;29;20033;-71
2021/07/21 08:14:29;;;;;;;12.85;5.25;;;22.00;53.20;;;;;;4882166;29;20037;-71
2021/07/21 08:16:55;;;;;;;10.88;5.15;;;22.00;52.60;;;;;;4894077;29;20029;-71
2021/07/21 08:19:22;;;;;;;12.80;4.28;;;22.10;52.70;;;;;;4895829;29;20089;-71
2021/07/21 08:21:48;;;;;;;8.73;4.35;;;22.00;53.10;;;;;;4896916;29;20040;-69
2021/07/21 08:24:15;;;;;;;11.60;4.60;;;22.10;52.80;;;;;;4883369;29;20033;-71
2021/07/21 08:26:40;;;;;;;10.68;3.42;;;22.10;53.10;;;;;;4881916;29;20052;-70
2021/07/21 08:29:07;;;;;;;10.23;4.38;;;22.10;52.40;;;;;;4879166;29;20120;-69
2021/07/21 08:31:33;;;;;;;9.07;4.50;;;22.10;51.90;;;;;;4880635;29;20033;-67
2021/07/21 08:34:02;;;;;;;8.40;3.80;;;22.10;52.10;;;;;;4880811;29;20029;-66
2021/07/21 08:36:29;;;;;;;8.63;4.28;;;22.10;52.10;;;;;;4878345;29;20037;-68
2021/07/21 08:38:54;;;;;;;8.90;4.28;;;22.20;52.10;;;;;;4882419;29;20104;-68
2021/07/21 08:41:20;;;;;;;7.95;4.13;;;22.20;52.50;;;;;;4884697;29;20449;-68
2021/07/21 08:43:45;;;;;;;8.65;4.32;;;22.20;52.50;;;;;;4889984;29;20469;-70
2021/07/21 08:46:11;;;;;;;14.80;4.35;;;22.30;52.00;;;;;;4884350;29;20109;-70
2021/07/21 08:48:37;;;;;;;13.00;4.10;;;22.40;50.60;;;;;;4863427;29;20081;-72
2021/07/21 08:51:03;;;;;;;8.32;4.15;;;22.20;49.70;;;;;;4880558;29;20133;-71
2021/07/21 08:53:29;;;;;;;12.57;4.90;;;22.30;50.10;;;;;;4879686;29;20419;-71
2021/07/21 08:55:55;;;;;;;9.40;4.47;;;22.30;48.60;;;;;;4870063;29;20073;-70
2021/07/21 08:58:22;;;;;;;8.32;3.60;;;22.30;48.60;;;;;;4880494;29;20080;-70
2021/07/21 09:00:52;;;;;;;7.50;4.00;;;22.30;47.90;;;;;;4890636;29;20041;-70
2021/07/21 09:03:19;;;;;;;9.65;4.28;;;22.20;47.90;;;;;;4883930;29;20041;-70
2021/07/21 09:05:53;;;;;;;8.70;3.92;;;22.30;47.70;;;;;;4895603;29;20116;-70
2021/07/21 09:08:19;;;;;;;7.97;4.03;;;22.30;47.30;;;;;;4885357;29;20039;-69
2021/07/21 09:10:46;;;;;;;8.15;4.00;;;22.40;46.90;;;;;;4885346;29;20049;-71
2021/07/21 09:13:15;;;;;;;5.80;3.00;;;22.30;47.70;;;;;;4872841;29;20107;-72
2021/07/21 09:15:43;;;;;;;8.05;3.35;;;22.30;46.90;;;;;;4884558;29;20036;-71
2021/07/21 09:18:10;;;;;;;7.47;3.33;;;22.30;45.60;;;;;;4880284;29;20032;-70
2021/07/21 09:20:45;;;;;;;6.65;3.08;;;22.20;47.00;;;;;;4873502;29;20033;-71
2021/07/21 09:23:12;;;;;;;10.35;3.05;;;22.20;47.90;;;;;;4881352;29;20120;-70
2021/07/21 09:25:39;;;;;;;8.73;3.22;;;22.20;48.50;;;;;;4888671;29;20507;-70
2021/07/21 09:28:08;;;;;;;6.72;3.20;;;22.20;49.00;;;;;;4880932;29;20039;-68
2021/07/21 09:30:44;;;;;;;6.75;3.17;;;22.30;48.70;;;;;;4862013;29;20072;-69
2021/07/21 09:33:18;;;;;;;6.82;3.40;;;22.20;47.30;;;;;;4861270;29;20028;-69
2021/07/21 09:35:55;;;;;;;6.85;3.58;;;22.30;47.30;;;;;;4863367;29;20484;-70
2021/07/21 09:38:29;;;;;;;7.47;3.20;;;22.30;46.90;;;;;;4875218;29;20037;-73
2021/07/21 09:41:01;;;;;;;6.65;3.17;;;22.30;47.70;;;;;;4891817;29;20031;-72
2021/07/21 09:43:30;;;;;;;7.03;3.25;;;22.30;47.50;;;;;;4873745;29;20039;-72
2021/07/21 09:46:06;;;;;;;8.75;3.63;;;22.30;47.80;;;;;;4880158;29;20120;-71
2021/07/21 09:48:50;;;;;;;6.88;3.17;;;22.30;48.00;;;;;;4878356;29;20033;-70
2021/07/21 09:51:36;;;;;;;6.18;3.45;;;22.40;47.30;;;;;;4885061;29;20104;-70
2021/07/21 09:54:14;;;;;;;7.55;3.20;;;22.40;48.10;;;;;;4899685;29;20052;-70
2021/07/21 09:56:40;;;;;;;8.73;3.20;;;22.40;48.40;;;;;;4896361;29;20048;-71
2021/07/21 09:59:33;;;;;;;5.85;3.03;;;22.40;48.30;;;;;;4894688;29;20093;-71
2021/07/21 10:02:14;;;;;;;7.50;3.38;;;22.30;47.70;;;;;;4873057;29;20032;-69
2021/07/21 10:04:40;;;;;;;8.40;3.20;;;22.30;47.50;;;;;;4884832;29;20471;-69
2021/07/21 10:07:44;;;;;;;5.88;3.22;;;22.30;48.60;;;;;;4882111;29;20108;-70
2021/07/21 10:09:55;;;;;;;6.38;3.55;;;22.30;48.70;;;;;;4868980;29;20535;-70
2021/07/21 10:12:20;;;;;;;6.65;3.25;;;22.30;49.40;;;;;;4886481;29;20120;-71
2021/07/21 10:14:59;;;;;;;6.53;3.50;;;22.20;48.30;;;;;;4887520;29;20081;-70
2021/07/21 10:17:26;;;;;;;7.32;3.53;;;22.20;48.70;;;;;;4895096;29;20338;-72
2021/07/21 10:19:52;;;;;;;7.32;3.40;;;22.20;48.40;;;;;;4873704;29;20035;-70
2021/07/21 10:22:18;;;;;;;6.75;3.05;;;22.20;48.10;;;;;;4875936;29;20025;-70
2021/07/21 10:24:44;;;;;;;6.25;3.22;;;22.10;48.20;;;;;;4886682;29;20090;-68
2021/07/21 10:27:10;;;;;;;6.45;3.33;;;22.30;48.00;;;;;;4877901;29;20418;-68
2021/07/21 10:29:36;;;;;;;8.02;3.47;;;22.30;48.40;;;;;;4879804;29;20092;-68
2021/07/21 10:32:02;;;;;;;8.40;2.95;;;22.40;48.70;;;;;;4876250;29;20033;-69
2021/07/21 10:34:28;;;;;;;5.25;2.97;;;22.40;49.10;;;;;;4885470;29;20029;-68
2021/07/21 10:36:54;;;;;;;6.45;3.20;;;22.20;50.10;;;;;;4872058;29;20108;-68
2021/07/21 10:39:22;;;;;;;6.80;3.30;;;22.20;49.90;;;;;;4876135;29;20473;-68
2021/07/21 10:41:49;;;;;;;9.25;3.90;;;22.30;49.50;;;;;;4883344;29;20120;-68
2021/07/21 10:44:16;;;;;;;5.63;2.83;;;22.30;49.50;;;;;;4883096;29;20115;-69
2021/07/21 10:46:43;;;;;;;7.45;3.40;;;22.30;49.50;;;;;;4876899;29;20097;-69
2021/07/21 10:49:28;;;;;;;9.18;3.00;;;22.40;49.20;;;;;;4878474;29;20040;-68
2021/07/21 11:00:14;;;;;;;5.38;2.80;;;22.30;48.80;;;;;;4875611;29;20132;-68
2021/07/21 11:02:41;;;;;;;10.18;3.28;;;22.30;48.70;;;;;;4878877;29;20453;-67
2021/07/21 11:05:09;;;;;;;6.70;3.42;;;22.40;48.80;;;;;;4879967;29;20112;-68
2021/07/21 11:08:01;;;;;;;4.88;2.47;;;22.50;48.90;;;;;;4878890;29;20026;-68
2021/07/21 11:10:34;;;;;;;5.03;2.67;;;22.50;48.70;;;;;;4877082;29;20147;-68
2021/07/21 11:13:01;;;;;;;7.45;3.45;;;22.50;48.60;;;;;;4879068;29;20041;-68
2021/07/21 11:15:37;;;;;;;5.97;2.67;;;22.40;48.40;;;;;;4878267;29;20101;-68
2021/07/21 11:18:21;;;;;;;7.45;2.92;;;22.40;48.70;;;;;;4878704;29;20041;-68
2021/07/21 11:21:00;;;;;;;5.97;3.05;;;22.50;48.50;;;;;;4878514;29;20145;-68
2021/07/21 11:23:57;;;;;;;5.90;2.83;;;22.50;49.30;;;;;;4877639;29;20552;-68
2021/07/21 11:26:34;;;;;;;7.07;3.00;;;22.50;49.20;;;;;;4878336;29;20036;-68
2021/07/21 11:29:29;;;;;;;6.82;3.15;;;22.40;49.30;;;;;;4877268;29;20157;-68
2021/07/21 11:31:55;;;;;;;6.25;3.28;;;22.50;49.00;;;;;;4871160;29;20043;-67
2021/07/21 11:34:38;;;;;;;6.35;3.47;;;22.50;49.20;;;;;;4887749;29;20033;-67
2021/07/21 11:37:08;;;;;;;5.13;2.90;;;22.50;49.30;;;;;;4892338;29;20524;-67
2021/07/21 11:39:54;;;;;;;7.45;3.33;;;22.50;49.50;;;;;;4875886;29;20025;-68
2021/07/21 11:42:27;;;;;;;6.82;3.53;;;22.50;49.20;;;;;;4862609;29;20090;-67
2021/07/21 11:45:11;;;;;;;6.80;3.60;;;22.60;49.10;;;;;;4884302;29;20079;-69
2021/07/21 11:47:42;;;;;;;8.80;3.77;;;22.60;48.70;;;;;;4874498;29;20030;-69
2021/07/21 11:50:12;;;;;;;7.63;4.07;;;22.60;48.50;;;;;;4877106;29;20338;-68
2021/07/21 11:52:38;;;;;;;7.70;3.70;;;22.70;48.60;;;;;;4887749;29;20036;-69
2021/07/21 11:55:04;;;;;;;7.20;3.85;;;22.60;48.90;;;;;;4884595;29;20425;-69
2021/07/21 11:57:30;;;;;;;6.97;3.42;;;22.60;49.30;;;;;;4873142;29;20026;-69
2021/07/21 11:59:58;;;;;;;7.57;4.03;;;22.60;49.10;;;;;;4889831;29;20052;-70
2021/07/21 12:02:25;;;;;;;7.82;4.10;;;22.60;49.70;;;;;;4890291;29;20052;-69
2021/07/21 12:04:53;;;;;;;6.65;3.40;;;22.60;49.70;;;;;;4876797;29;20052;-69
2021/07/21 12:07:20;;;;;;;7.60;3.80;;;22.70;49.40;;;;;;4882632;29;20072;-69
2021/07/21 12:09:48;;;;;;;6.00;3.70;;;22.70;48.70;;;;;;4883427;29;20045;-69
2021/07/21 12:12:16;;;;;;;7.88;3.85;;;22.70;48.20;;;;;;4876646;29;20048;-69
2021/07/21 12:14:52;;;;;;;8.52;3.70;;;22.80;48.50;;;;;;4897649;29;20115;-69
2021/07/21 12:17:19;;;;;;;6.53;3.65;;;22.70;48.60;;;;;;4897010;29;20031;-68
2021/07/21 12:20:08;;;;;;;8.48;3.20;;;22.70;48.90;;;;;;4883840;29;20128;-68
2021/07/21 12:22:37;;;;;;;8.23;3.28;;;22.70;49.10;;;;;;4892265;29;20029;-69
2021/07/21 12:25:21;;;;;;;7.40;4.15;;;22.70;51.00;;;;;;4890919;29;20429;-67
2021/07/21 12:27:48;;;;;;;7.65;3.53;;;22.70;51.20;;;;;;4881157;29;20442;-65
2021/07/21 12:30:17;;;;;;;9.20;3.60;;;22.70;51.00;;;;;;4877538;29;20037;-65
2021/07/21 12:32:45;;;;;;;9.35;3.60;;;22.80;50.30;;;;;;4889882;29;20021;-65
2021/07/21 12:35:12;;;;;;;10.45;4.10;;;22.80;50.20;;;;;;4892064;29;20393;-66
2021/07/21 12:37:46;;;;;;;9.10;3.55;;;22.90;50.20;;;;;;4879890;29;20462;-66
2021/07/21 12:40:21;;;;;;;7.07;3.58;;;22.90;50.20;;;;;;4871777;29;20033;-65
2021/07/21 12:42:51;;;;;;;7.38;3.38;;;22.90;50.20;;;;;;4874197;29;20029;-65
2021/07/21 12:45:19;;;;;;;8.68;3.67;;;22.90;50.20;;;;;;4884157;29;20025;-65
2021/07/21 12:47:53;;;;;;;8.45;3.97;;;22.90;50.20;;;;;;4885388;29;20081;-66
2021/07/21 12:50:22;;;;;;;7.35;3.38;;;22.90;50.30;;;;;;4891517;29;20032;-66
2021/07/21 12:53:11;;;;;;;7.50;3.58;;;23.00;50.30;;;;;;4881916;29;20032;-66
2021/07/21 12:55:38;;;;;;;6.22;3.35;;;23.00;50.30;;;;;;4886154;29;20523;-67
2021/07/21 12:58:06;;;;;;;7.10;3.65;;;23.00;50.30;;;;;;4885911;29;20031;-66
2021/07/21 13:00:32;;;;;;;8.10;3.70;;;23.00;50.30;;;;;;4890270;29;20025;-66
2021/07/21 13:03:11;;;;;;;7.10;3.40;;;23.00;50.30;;;;;;4887900;29;20173;-66
2021/07/21 13:05:48;;;;;;;6.97;3.38;;;23.00;50.20;;;;;;4895913;29;20127;-66
2021/07/21 13:08:23;;;;;;;6.80;3.80;;;23.10;50.20;;;;;;4886329;29;20028;-65